createdAt,value
2023-02-15T00:00:30.618Z,0.00
2023-02-15T00:01:30.604Z,0.00
2023-02-15T00:02:30.569Z,0.00
2023-02-15T00:03:30.557Z,0.00
2023-02-15T00:04:30.544Z,0.00
2023-02-15T00:05:30.595Z,0.00
2023-02-15T00:06:30.534Z,0.00
2023-02-15T00:07:30.508Z,0.00
2023-02-15T00:08:30.499Z,0.00
2023-02-15T00:09:30.495Z,0.00
2023-02-15T00:10:30.518Z,0.00
2023-02-15T00:11:30.479Z,0.00
2023-02-15T00:12:30.457Z,0.00
2023-02-15T00:13:30.448Z,0.00
2023-02-15T00:14:30.435Z,0.00
2023-02-15T00:15:30.453Z,0.00
2023-02-15T00:16:30.436Z,0.00
2023-02-15T00:17:30.420Z,0.00
2023-02-15T00:18:30.397Z,0.00
2023-02-15T00:19:30.414Z,0.00
2023-02-15T00:20:30.379Z,0.00
2023-02-15T00:21:30.389Z,0.00
2023-02-15T00:22:30.356Z,0.00
2023-02-15T00:23:30.339Z,0.00
2023-02-15T00:24:30.366Z,0.00
2023-02-15T00:25:30.333Z,0.00
2023-02-15T00:26:30.309Z,0.00
2023-02-15T00:27:30.320Z,0.00
2023-02-15T00:28:30.288Z,0.00
2023-02-15T00:29:30.276Z,0.00
2023-02-15T00:30:30.476Z,0.00
2023-02-15T00:31:30.329Z,0.00
2023-02-15T00:32:30.257Z,0.00
2023-02-15T00:33:30.235Z,0.00
2023-02-15T00:34:30.225Z,0.00
2023-02-15T00:35:30.212Z,0.00
2023-02-15T00:36:30.201Z,0.00
2023-02-15T00:37:30.217Z,0.00
2023-02-15T00:38:30.179Z,0.00
2023-02-15T00:39:30.170Z,0.00
2023-02-15T00:40:30.186Z,0.00
2023-02-15T00:41:37.987Z,0.00
2023-02-15T00:42:30.128Z,0.00
2023-02-15T00:43:30.117Z,0.00
2023-02-15T00:44:30.105Z,0.00
2023-02-15T00:45:30.118Z,0.00
2023-02-15T00:46:30.081Z,0.00
2023-02-15T00:47:30.078Z,0.00
2023-02-15T00:48:30.064Z,0.00
2023-02-15T00:49:30.062Z,0.00
2023-02-15T00:50:30.059Z,0.00
2023-02-15T00:51:30.034Z,0.00
2023-02-15T00:52:30.025Z,0.00
2023-02-15T00:53:30.009Z,0.00
2023-02-15T00:54:29.995Z,0.00
2023-02-15T00:55:30.015Z,0.00
2023-02-15T00:56:29.980Z,0.00
2023-02-15T00:57:29.958Z,0.00
2023-02-15T00:58:29.954Z,0.00
2023-02-15T00:59:29.948Z,0.00
2023-02-15T01:00:29.931Z,0.00
2023-02-15T01:01:30.016Z,0.00
2023-02-15T01:02:29.909Z,0.00
2023-02-15T01:03:29.897Z,0.00
2023-02-15T01:04:29.920Z,0.00
2023-02-15T01:05:29.876Z,0.00
2023-02-15T01:06:29.902Z,0.00
2023-02-15T01:07:29.850Z,0.00
2023-02-15T01:08:29.848Z,0.00
2023-02-15T01:09:29.830Z,0.00
2023-02-15T01:10:29.832Z,0.00
2023-02-15T01:11:29.811Z,0.00
2023-02-15T01:12:29.833Z,0.00
2023-02-15T01:13:29.833Z,0.00
2023-02-15T01:14:29.788Z,0.00
2023-02-15T01:15:29.774Z,0.00
2023-02-15T01:16:29.826Z,0.00
2023-02-15T01:17:29.785Z,0.00
2023-02-15T01:18:29.742Z,0.00
2023-02-15T01:19:29.742Z,0.00
2023-02-15T01:20:29.722Z,0.00
2023-02-15T01:21:29.707Z,0.00
2023-02-15T01:22:29.720Z,0.00
2023-02-15T01:23:29.691Z,0.00
2023-02-15T01:24:29.680Z,0.00
2023-02-15T01:25:29.665Z,0.00
2023-02-15T01:26:29.654Z,0.00
2023-02-15T01:27:29.671Z,0.00
2023-02-15T01:28:29.633Z,0.00
2023-02-15T01:29:29.640Z,0.00
2023-02-15T01:30:29.612Z,0.00
2023-02-15T01:31:29.745Z,0.00
2023-02-15T01:32:29.591Z,0.00
2023-02-15T01:33:29.622Z,0.00
2023-02-15T01:34:29.591Z,0.00
2023-02-15T01:35:29.569Z,0.00
2023-02-15T01:36:29.542Z,0.00
2023-02-15T01:37:29.533Z,0.00
2023-02-15T01:38:29.523Z,0.00
2023-02-15T01:39:29.532Z,0.00
2023-02-15T01:40:29.499Z,0.00
2023-02-15T01:41:29.497Z,0.00
2023-02-15T01:42:29.491Z,0.00
2023-02-15T01:43:29.472Z,0.00
2023-02-15T01:44:29.460Z,0.00
2023-02-15T01:45:29.469Z,0.00
2023-02-15T01:46:29.537Z,0.00
2023-02-15T01:47:29.435Z,0.00
2023-02-15T01:48:29.411Z,0.00
2023-02-15T01:49:29.408Z,0.00
2023-02-15T01:50:29.394Z,0.00
2023-02-15T01:51:29.397Z,0.00
2023-02-15T01:52:29.369Z,0.00
2023-02-15T01:53:29.367Z,0.00
2023-02-15T01:54:29.350Z,0.00
2023-02-15T01:55:29.337Z,0.00
2023-02-15T01:56:29.359Z,0.00
2023-02-15T01:57:29.309Z,0.00
2023-02-15T01:58:29.296Z,0.00
2023-02-15T01:59:29.287Z,0.00
2023-02-15T02:00:29.267Z,0.00
2023-02-15T02:01:29.283Z,0.00
2023-02-15T02:02:29.318Z,0.00
2023-02-15T02:03:29.245Z,0.00
2023-02-15T02:04:29.232Z,0.00
2023-02-15T02:05:29.213Z,0.00
2023-02-15T02:06:29.209Z,0.00
2023-02-15T02:07:29.223Z,0.00
2023-02-15T02:08:29.186Z,0.00
2023-02-15T02:09:29.174Z,0.00
2023-02-15T02:10:29.162Z,0.00
2023-02-15T02:11:29.160Z,0.00
2023-02-15T02:12:29.155Z,0.00
2023-02-15T02:13:29.157Z,0.00
2023-02-15T02:14:29.124Z,0.00
2023-02-15T02:15:29.102Z,0.00
2023-02-15T02:16:29.102Z,0.00
2023-02-15T02:17:29.084Z,0.00
2023-02-15T02:18:29.094Z,0.00
2023-02-15T02:19:29.065Z,0.00
2023-02-15T02:20:29.047Z,0.00
2023-02-15T02:21:29.046Z,0.00
2023-02-15T02:22:29.027Z,0.00
2023-02-15T02:23:29.054Z,0.00
2023-02-15T02:24:29.022Z,0.00
2023-02-15T02:25:28.996Z,0.00
2023-02-15T02:26:28.991Z,0.00
2023-02-15T02:27:28.981Z,0.00
2023-02-15T02:28:28.994Z,0.00
2023-02-15T02:29:28.958Z,0.00
2023-02-15T02:30:29.019Z,0.00
2023-02-15T02:31:29.106Z,0.00
2023-02-15T02:32:28.924Z,0.00
2023-02-15T02:33:28.918Z,0.00
2023-02-15T02:34:28.936Z,0.00
2023-02-15T02:35:28.892Z,0.00
2023-02-15T02:36:28.882Z,0.00
2023-02-15T02:37:28.974Z,0.00
2023-02-15T02:38:28.861Z,0.00
2023-02-15T02:39:28.845Z,0.00
2023-02-15T02:40:28.857Z,0.00
2023-02-15T02:41:28.815Z,0.00
2023-02-15T02:42:28.815Z,0.00
2023-02-15T02:43:28.801Z,0.00
2023-02-15T02:44:28.784Z,0.00
2023-02-15T02:45:28.794Z,0.00
2023-02-15T02:46:28.855Z,0.00
2023-02-15T02:47:28.744Z,0.00
2023-02-15T02:48:28.742Z,0.00
2023-02-15T02:49:28.752Z,0.00
2023-02-15T02:50:28.735Z,0.00
2023-02-15T02:51:28.725Z,0.00
2023-02-15T02:52:28.705Z,0.00
2023-02-15T02:53:28.695Z,0.00
2023-02-15T02:54:28.713Z,0.00
2023-02-15T02:55:28.662Z,0.00
2023-02-15T02:56:28.659Z,0.00
2023-02-15T02:57:28.641Z,0.00
2023-02-15T02:58:28.635Z,0.00
2023-02-15T02:59:28.642Z,0.00
2023-02-15T03:00:28.616Z,0.00
2023-02-15T03:01:28.659Z,0.00
2023-02-15T03:02:28.592Z,0.00
2023-02-15T03:03:28.589Z,0.00
2023-02-15T03:04:28.587Z,0.00
2023-02-15T03:05:28.552Z,0.00
2023-02-15T03:06:28.543Z,0.00
2023-02-15T03:07:28.535Z,0.00
2023-02-15T03:08:28.518Z,0.00
2023-02-15T03:09:28.507Z,0.00
2023-02-15T03:10:28.537Z,0.00
2023-02-15T03:11:28.484Z,0.00
2023-02-15T03:12:28.478Z,0.00
2023-02-15T03:13:28.467Z,0.00
2023-02-15T03:14:28.459Z,0.00
2023-02-15T03:15:28.467Z,0.00
2023-02-15T03:16:28.562Z,0.00
2023-02-15T03:17:28.425Z,0.00
2023-02-15T03:18:28.410Z,0.00
2023-02-15T03:19:28.397Z,0.00
2023-02-15T03:20:28.407Z,0.00
2023-02-15T03:21:28.378Z,0.00
2023-02-15T03:22:28.367Z,0.00
2023-02-15T03:23:28.358Z,0.00
2023-02-15T03:24:28.355Z,0.00
2023-02-15T03:25:28.330Z,0.00
2023-02-15T03:26:28.353Z,0.00
2023-02-15T03:27:28.322Z,0.00
2023-02-15T03:28:28.317Z,0.00
2023-02-15T03:29:28.293Z,0.00
2023-02-15T03:30:28.323Z,0.00
2023-02-15T03:31:28.391Z,0.00
2023-02-15T03:32:28.282Z,0.00
2023-02-15T03:33:28.250Z,0.00
2023-02-15T03:34:28.256Z,0.00
2023-02-15T03:35:28.219Z,0.00
2023-02-15T03:36:28.220Z,0.00
2023-02-15T03:37:28.275Z,0.00
2023-02-15T03:38:28.232Z,0.00
2023-02-15T03:39:28.184Z,0.00
2023-02-15T03:40:28.166Z,0.00
2023-02-15T03:41:28.159Z,0.00
2023-02-15T03:42:28.145Z,0.00
2023-02-15T03:43:28.139Z,0.00
2023-02-15T03:44:28.157Z,0.00
2023-02-15T03:45:28.117Z,0.00
2023-02-15T03:46:28.156Z,0.00
2023-02-15T03:47:28.085Z,0.00
2023-02-15T03:48:28.106Z,0.00
2023-02-15T03:49:28.067Z,0.00
2023-02-15T03:50:28.062Z,0.00
2023-02-15T03:51:28.045Z,0.00
2023-02-15T03:52:28.036Z,0.00
2023-02-15T03:53:28.026Z,0.00
2023-02-15T03:54:28.035Z,0.00
2023-02-15T03:55:27.998Z,0.00
2023-02-15T03:56:27.996Z,0.00
2023-02-15T03:57:27.974Z,0.00
2023-02-15T03:58:27.964Z,0.00
2023-02-15T03:59:27.974Z,0.00
2023-02-15T04:00:27.956Z,0.00
2023-02-15T04:01:28.022Z,0.00
2023-02-15T04:02:27.923Z,0.00
2023-02-15T04:03:27.931Z,0.00
2023-02-15T04:04:27.916Z,0.00
2023-02-15T04:05:27.884Z,0.00
2023-02-15T04:06:27.876Z,0.00
2023-02-15T04:07:27.865Z,0.00
2023-02-15T04:08:27.856Z,0.00
2023-02-15T04:09:27.836Z,0.00
2023-02-15T04:10:27.846Z,0.00
2023-02-15T04:11:27.824Z,0.00
2023-02-15T04:12:27.832Z,0.00
2023-02-15T04:13:27.850Z,0.00
2023-02-15T04:14:27.803Z,0.00
2023-02-15T04:15:27.803Z,0.00
2023-02-15T04:16:30.239Z,0.00
2023-02-15T04:17:27.755Z,0.00
2023-02-15T04:18:27.741Z,0.00
2023-02-15T04:19:27.728Z,0.00
2023-02-15T04:20:27.772Z,0.00
2023-02-15T04:21:27.701Z,0.00
2023-02-15T04:22:27.692Z,0.00
2023-02-15T04:23:27.719Z,0.00
2023-02-15T04:24:27.677Z,0.00
2023-02-15T04:25:27.689Z,0.00
2023-02-15T04:26:27.671Z,0.00
2023-02-15T04:27:27.631Z,0.00
2023-02-15T04:28:27.630Z,0.00
2023-02-15T04:29:27.617Z,0.00
2023-02-15T04:30:27.762Z,0.00
2023-02-15T04:31:27.684Z,0.00
2023-02-15T04:32:27.593Z,0.00
2023-02-15T04:33:27.586Z,0.00
2023-02-15T04:34:27.575Z,0.00
2023-02-15T04:35:27.551Z,0.00
2023-02-15T04:36:27.555Z,0.00
2023-02-15T04:37:27.569Z,0.00
2023-02-15T04:38:27.520Z,0.00
2023-02-15T04:39:27.511Z,0.00
2023-02-15T04:40:27.527Z,0.00
2023-02-15T04:41:27.505Z,0.00
2023-02-15T04:42:27.469Z,0.00
2023-02-15T04:43:27.488Z,0.00
2023-02-15T04:44:27.451Z,0.00
2023-02-15T04:45:27.489Z,0.00
2023-02-15T04:46:27.461Z,0.00
2023-02-15T04:47:27.420Z,0.00
2023-02-15T04:48:27.407Z,0.00
2023-02-15T04:49:27.393Z,0.00
2023-02-15T04:50:27.387Z,0.00
2023-02-15T04:51:27.376Z,0.00
2023-02-15T04:52:27.386Z,0.00
2023-02-15T04:53:27.365Z,0.00
2023-02-15T04:54:27.368Z,0.00
2023-02-15T04:55:27.327Z,0.00
2023-02-15T04:56:27.344Z,0.00
2023-02-15T04:57:27.316Z,0.00
2023-02-15T04:58:27.307Z,0.00
2023-02-15T04:59:27.313Z,0.00
2023-02-15T05:00:27.277Z,0.00
2023-02-15T05:01:27.352Z,0.00
2023-02-15T05:02:27.256Z,0.00
2023-02-15T05:03:27.266Z,0.00
2023-02-15T05:04:27.336Z,0.00
2023-02-15T05:05:27.227Z,0.00
2023-02-15T05:06:27.218Z,0.00
2023-02-15T05:07:27.197Z,0.00
2023-02-15T05:08:27.187Z,0.00
2023-02-15T05:09:27.214Z,0.00
2023-02-15T05:10:27.173Z,0.00
2023-02-15T05:11:27.163Z,0.00
2023-02-15T05:12:27.158Z,0.00
2023-02-15T05:13:27.160Z,0.00
2023-02-15T05:14:27.127Z,0.00
2023-02-15T05:15:27.145Z,0.00
2023-02-15T05:16:27.140Z,0.00
2023-02-15T05:17:27.092Z,0.00
2023-02-15T05:18:27.088Z,0.00
2023-02-15T05:19:27.074Z,0.00
2023-02-15T05:20:27.072Z,0.00
2023-02-15T05:21:27.074Z,0.00
2023-02-15T05:22:27.044Z,0.00
2023-02-15T05:23:27.052Z,0.00
2023-02-15T05:24:27.038Z,0.00
2023-02-15T05:25:27.038Z,0.00
2023-02-15T05:26:26.997Z,0.00
2023-02-15T05:27:26.987Z,0.00
2023-02-15T05:28:26.980Z,0.00
2023-02-15T05:29:26.964Z,0.00
2023-02-15T05:30:27.180Z,0.00
2023-02-15T05:31:27.243Z,0.00
2023-02-15T05:32:27.055Z,0.00
2023-02-15T05:33:26.954Z,0.00
2023-02-15T05:34:26.913Z,0.00
2023-02-15T05:35:26.976Z,0.00
2023-02-15T05:36:26.971Z,0.00
2023-02-15T05:37:26.901Z,0.00
2023-02-15T05:38:26.872Z,0.00
2023-02-15T05:39:26.919Z,0.00
2023-02-15T05:40:26.854Z,0.00
2023-02-15T05:41:26.830Z,0.00
2023-02-15T05:42:26.841Z,0.00
2023-02-15T05:43:26.860Z,0.00
2023-02-15T05:44:26.862Z,0.00
2023-02-15T05:45:26.817Z,0.00
2023-02-15T05:46:26.852Z,0.00
2023-02-15T05:47:26.798Z,0.00
2023-02-15T05:48:26.788Z,0.00
2023-02-15T05:49:26.780Z,0.00
2023-02-15T05:50:26.744Z,0.00
2023-02-15T05:51:26.737Z,0.00
2023-02-15T05:52:26.738Z,0.00
2023-02-15T05:53:26.775Z,0.00
2023-02-15T05:54:26.699Z,0.00
2023-02-15T05:55:26.690Z,0.00
2023-02-15T05:56:26.673Z,0.00
2023-02-15T05:57:26.743Z,0.00
2023-02-15T05:58:26.667Z,0.00
2023-02-15T05:59:26.678Z,0.00
2023-02-15T06:00:26.635Z,0.00
2023-02-15T06:01:26.622Z,0.00
2023-02-15T06:02:26.658Z,0.00
2023-02-15T06:03:26.702Z,0.00
2023-02-15T06:04:26.621Z,0.00
2023-02-15T06:05:26.599Z,0.00
2023-02-15T06:06:26.592Z,0.00
2023-02-15T06:07:26.562Z,0.00
2023-02-15T06:08:26.552Z,0.00
2023-02-15T06:09:26.608Z,0.00
2023-02-15T06:10:26.537Z,0.00
2023-02-15T06:11:26.520Z,0.00
2023-02-15T06:12:26.508Z,4.00
2023-02-15T06:13:26.572Z,0.00
2023-02-15T06:14:26.492Z,4.00
2023-02-15T06:15:26.552Z,4.00
2023-02-15T06:16:26.462Z,4.00
2023-02-15T06:17:26.483Z,4.00
2023-02-15T06:18:26.464Z,4.00
2023-02-15T06:19:26.504Z,4.00
2023-02-15T06:20:26.630Z,8.00
2023-02-15T06:21:26.443Z,8.00
2023-02-15T06:22:26.465Z,12.00
2023-02-15T06:23:26.626Z,12.00
2023-02-15T06:24:26.704Z,12.00
2023-02-15T06:25:27.411Z,16.00
2023-02-15T06:26:26.658Z,20.00
2023-02-15T06:27:26.944Z,24.00
2023-02-15T06:28:26.388Z,32.00
2023-02-15T06:29:26.394Z,32.00
2023-02-15T06:30:26.663Z,40.00
2023-02-15T06:31:27.534Z,48.00
2023-02-15T06:32:26.854Z,56.00
2023-02-15T06:33:26.448Z,60.00
2023-02-15T06:34:26.613Z,72.00
2023-02-15T06:35:26.346Z,84.00
2023-02-15T06:36:26.327Z,96.00
2023-02-15T06:37:26.336Z,108.00
2023-02-15T06:38:26.269Z,120.00
2023-02-15T06:39:26.220Z,136.00
2023-02-15T06:40:26.228Z,152.00
2023-02-15T06:41:33.287Z,168.00
2023-02-15T06:42:26.334Z,188.00
2023-02-15T06:43:26.301Z,208.00
2023-02-15T06:44:26.206Z,224.00
2023-02-15T06:45:26.205Z,244.00
2023-02-15T06:46:26.171Z,268.00
2023-02-15T06:47:26.235Z,292.00
2023-02-15T06:48:26.153Z,320.00
2023-02-15T06:49:26.112Z,344.00
2023-02-15T06:50:26.200Z,368.00
2023-02-15T06:51:26.089Z,396.00
2023-02-15T06:52:26.091Z,420.00
2023-02-15T06:53:26.110Z,452.00
2023-02-15T06:54:26.051Z,480.00
2023-02-15T06:55:26.049Z,508.00
2023-02-15T06:56:26.031Z,536.00
2023-02-15T06:57:26.027Z,568.00
2023-02-15T06:58:26.039Z,600.00
2023-02-15T06:59:26.112Z,628.00
2023-02-15T07:00:26.031Z,656.00
2023-02-15T07:01:26.021Z,692.00
2023-02-15T07:02:25.968Z,720.00
2023-02-15T07:03:25.997Z,756.00
2023-02-15T07:04:26.057Z,784.00
2023-02-15T07:05:25.947Z,816.00
2023-02-15T07:06:25.924Z,848.00
2023-02-15T07:07:25.926Z,880.00
2023-02-15T07:08:25.905Z,912.00
2023-02-15T07:09:25.897Z,944.00
2023-02-15T07:10:25.974Z,976.00
2023-02-15T07:11:25.982Z,1004.00
2023-02-15T07:12:25.970Z,1036.00
2023-02-15T07:13:25.940Z,1068.00
2023-02-15T07:14:28.124Z,1100.00
2023-02-15T07:15:25.894Z,1136.00
2023-02-15T07:16:26.007Z,1164.00
2023-02-15T07:17:35.316Z,1196.00
2023-02-15T07:18:26.979Z,1228.00
2023-02-15T07:19:26.101Z,1256.00
2023-02-15T07:20:25.909Z,1288.00
2023-02-15T07:21:26.123Z,1316.00
2023-02-15T07:22:26.122Z,1344.00
2023-02-15T07:23:25.973Z,1376.00
2023-02-15T07:24:26.304Z,1404.00
2023-02-15T07:25:26.091Z,1432.00
2023-02-15T07:26:25.865Z,1464.00
2023-02-15T07:27:25.726Z,1492.00
2023-02-15T07:28:25.803Z,1520.00
2023-02-15T07:29:25.857Z,1548.00
2023-02-15T07:30:25.877Z,1572.00
2023-02-15T07:31:25.695Z,1600.00
2023-02-15T07:32:25.757Z,1628.00
2023-02-15T07:33:25.699Z,1652.00
2023-02-15T07:34:25.629Z,1680.00
2023-02-15T07:35:25.634Z,1708.00
2023-02-15T07:36:25.599Z,1732.00
2023-02-15T07:37:25.591Z,1756.00
2023-02-15T07:38:25.571Z,1776.00
2023-02-15T07:39:25.569Z,1804.00
2023-02-15T07:40:25.584Z,1824.00
2023-02-15T07:41:25.549Z,1844.00
2023-02-15T07:42:25.539Z,1868.00
2023-02-15T07:43:25.555Z,1888.00
2023-02-15T07:44:25.510Z,1904.00
2023-02-15T07:45:25.531Z,1928.00
2023-02-15T07:46:25.568Z,1952.00
2023-02-15T07:47:25.490Z,1976.00
2023-02-15T07:48:25.469Z,2000.00
2023-02-15T07:49:25.459Z,2020.00
2023-02-15T07:50:25.471Z,2036.00
2023-02-15T07:51:25.439Z,2048.00
2023-02-15T07:52:25.452Z,2068.00
2023-02-15T07:53:25.440Z,2088.00
2023-02-15T07:54:25.410Z,2112.00
2023-02-15T07:55:25.399Z,2132.00
2023-02-15T07:56:25.381Z,2152.00
2023-02-15T07:57:25.395Z,2176.00
2023-02-15T07:58:25.361Z,2200.00
2023-02-15T07:59:25.357Z,2220.00
2023-02-15T08:00:25.344Z,2248.00
2023-02-15T08:01:25.330Z,2272.00
2023-02-15T08:02:25.374Z,2292.00
2023-02-15T08:03:25.586Z,2316.00
2023-02-15T08:04:25.309Z,2336.00
2023-02-15T08:05:25.290Z,2356.00
2023-02-15T08:06:25.268Z,2376.00
2023-02-15T08:07:25.292Z,2396.00
2023-02-15T08:08:25.276Z,2416.00
2023-02-15T08:09:25.237Z,2432.00
2023-02-15T08:10:25.230Z,2448.00
2023-02-15T08:11:25.213Z,2464.00
2023-02-15T08:12:25.205Z,2484.00
2023-02-15T08:13:25.257Z,2492.00
2023-02-15T08:14:25.187Z,2504.00
2023-02-15T08:15:25.182Z,2520.00
2023-02-15T08:16:25.245Z,2536.00
2023-02-15T08:17:25.155Z,2552.00
2023-02-15T08:18:25.163Z,2568.00
2023-02-15T08:19:25.140Z,2588.00
2023-02-15T08:20:25.115Z,2608.00
2023-02-15T08:21:25.177Z,2624.00
2023-02-15T08:22:25.097Z,2636.00
2023-02-15T08:23:25.115Z,2656.00
2023-02-15T08:24:25.096Z,2668.00
2023-02-15T08:25:25.073Z,2692.00
2023-02-15T08:26:25.059Z,2708.00
2023-02-15T08:27:25.047Z,2716.00
2023-02-15T08:28:25.053Z,2732.00
2023-02-15T08:29:25.046Z,2760.00
2023-02-15T08:30:25.113Z,2788.00
2023-02-15T08:31:25.072Z,2812.00
2023-02-15T08:32:25.158Z,2840.00
2023-02-15T08:33:24.995Z,2860.00
2023-02-15T08:34:24.968Z,2880.00
2023-02-15T08:35:24.958Z,2896.00
2023-02-15T08:36:24.977Z,2904.00
2023-02-15T08:37:24.936Z,2912.00
2023-02-15T08:38:24.927Z,2916.00
2023-02-15T08:39:24.918Z,2888.00
2023-02-15T08:40:24.908Z,2888.00
2023-02-15T08:41:24.900Z,2904.00
2023-02-15T08:42:24.930Z,2912.00
2023-02-15T08:43:24.886Z,2908.00
2023-02-15T08:44:24.865Z,2868.00
2023-02-15T08:45:24.855Z,2780.00
2023-02-15T08:46:24.865Z,2748.00
2023-02-15T08:47:24.852Z,2800.00
2023-02-15T08:48:24.815Z,2796.00
2023-02-15T08:49:24.824Z,2844.00
2023-02-15T08:50:24.795Z,2912.00
2023-02-15T08:51:24.859Z,2984.00
2023-02-15T08:52:24.800Z,3024.00
2023-02-15T08:53:24.787Z,3028.00
2023-02-15T08:54:24.754Z,3060.00
2023-02-15T08:55:24.742Z,3084.00
2023-02-15T08:56:24.736Z,2968.00
2023-02-15T08:57:24.733Z,3156.00
2023-02-15T08:58:24.736Z,3068.00
2023-02-15T08:59:24.715Z,3120.00
2023-02-15T09:00:24.686Z,3196.00
2023-02-15T09:01:24.759Z,3300.00
2023-02-15T09:02:24.781Z,3332.00
2023-02-15T09:03:24.666Z,3352.00
2023-02-15T09:04:24.685Z,3380.00
2023-02-15T09:05:24.635Z,3384.00
2023-02-15T09:06:24.627Z,3400.00
2023-02-15T09:07:24.613Z,3444.00
2023-02-15T09:08:24.605Z,3448.00
2023-02-15T09:09:24.597Z,3452.00
2023-02-15T09:10:24.602Z,3424.00
2023-02-15T09:11:24.577Z,3432.00
2023-02-15T09:12:24.581Z,3508.00
2023-02-15T09:13:24.602Z,3564.00
2023-02-15T09:14:24.538Z,3588.00
2023-02-15T09:15:24.528Z,3644.00
2023-02-15T09:16:24.545Z,3672.00
2023-02-15T09:17:24.535Z,3708.00
2023-02-15T09:18:24.495Z,3740.00
2023-02-15T09:19:24.514Z,3764.00
2023-02-15T09:20:24.512Z,3800.00
2023-02-15T09:21:24.467Z,3836.00
2023-02-15T09:22:24.444Z,3864.00
2023-02-15T09:23:27.227Z,3884.00
2023-02-15T09:24:24.423Z,3884.00
2023-02-15T09:25:24.415Z,3896.00
2023-02-15T09:26:24.425Z,3924.00
2023-02-15T09:27:24.396Z,3956.00
2023-02-15T09:28:24.379Z,4024.00
2023-02-15T09:29:24.379Z,4108.00
2023-02-15T09:30:24.494Z,4180.00
2023-02-15T09:31:24.475Z,4248.00
2023-02-15T09:32:24.362Z,4292.00
2023-02-15T09:33:24.351Z,4348.00
2023-02-15T09:34:24.337Z,4416.00
2023-02-15T09:35:24.306Z,4456.00
2023-02-15T09:36:24.302Z,4516.00
2023-02-15T09:37:24.309Z,4552.00
2023-02-15T09:38:24.272Z,4600.00
2023-02-15T09:39:24.261Z,4612.00
2023-02-15T09:40:24.252Z,4676.00
2023-02-15T09:41:24.239Z,4748.00
2023-02-15T09:42:24.255Z,4828.00
2023-02-15T09:43:24.255Z,4884.00
2023-02-15T09:44:24.215Z,4856.00
2023-02-15T09:45:24.194Z,4944.00
2023-02-15T09:46:24.196Z,5080.00
2023-02-15T09:47:24.174Z,5180.00
2023-02-15T09:48:24.169Z,5316.00
2023-02-15T09:49:24.171Z,5440.00
2023-02-15T09:50:24.238Z,5560.00
2023-02-15T09:51:24.123Z,5648.00
2023-02-15T09:52:24.120Z,5704.00
2023-02-15T09:53:24.116Z,5796.00
2023-02-15T09:54:24.103Z,5928.00
2023-02-15T09:55:24.105Z,6064.00
2023-02-15T09:56:24.078Z,6156.00
2023-02-15T09:57:24.072Z,6252.00
2023-02-15T09:58:24.070Z,6408.00
2023-02-15T09:59:24.041Z,6520.00
2023-02-15T10:00:24.054Z,6640.00
2023-02-15T10:01:24.134Z,6776.00
2023-02-15T10:02:24.025Z,6856.00
2023-02-15T10:03:24.014Z,6984.00
2023-02-15T10:04:24.048Z,7100.00
2023-02-15T10:05:23.975Z,7196.00
2023-02-15T10:06:24.034Z,7296.00
2023-02-15T10:07:23.963Z,7436.00
2023-02-15T10:08:23.953Z,7532.00
2023-02-15T10:09:23.941Z,7580.00
2023-02-15T10:10:23.928Z,7684.00
2023-02-15T10:11:23.935Z,7748.00
2023-02-15T10:12:23.908Z,7780.00
2023-02-15T10:13:23.902Z,7980.00
2023-02-15T10:14:23.879Z,8144.00
2023-02-15T10:15:23.869Z,8704.00
2023-02-15T10:16:23.910Z,9948.00
2023-02-15T10:17:23.875Z,11736.00
2023-02-15T10:18:23.855Z,12752.00
2023-02-15T10:19:23.819Z,12944.00
2023-02-15T10:20:23.837Z,13208.00
2023-02-15T10:21:23.806Z,13480.00
2023-02-15T10:22:23.819Z,13596.00
2023-02-15T10:23:23.788Z,13640.00
2023-02-15T10:24:23.789Z,13528.00
2023-02-15T10:25:23.760Z,13716.00
2023-02-15T10:26:23.814Z,13932.00
2023-02-15T10:27:23.749Z,14208.00
2023-02-15T10:28:23.748Z,13860.00
2023-02-15T10:29:23.710Z,13872.00
2023-02-15T10:30:23.750Z,13848.00
2023-02-15T10:31:23.762Z,14016.00
2023-02-15T10:32:23.711Z,14304.00
2023-02-15T10:33:23.702Z,14528.00
2023-02-15T10:34:23.685Z,14880.00
2023-02-15T10:35:23.641Z,15008.00
2023-02-15T10:36:23.638Z,15008.00
2023-02-15T10:37:23.623Z,15232.00
2023-02-15T10:38:23.611Z,15392.00
2023-02-15T10:39:23.601Z,15392.00
2023-02-15T10:40:23.611Z,15488.00
2023-02-15T10:41:23.587Z,15488.00
2023-02-15T10:42:23.573Z,15392.00
2023-02-15T10:43:23.571Z,15424.00
2023-02-15T10:44:23.542Z,15776.00
2023-02-15T10:45:23.564Z,16000.00
2023-02-15T10:46:23.583Z,16224.00
2023-02-15T10:47:23.508Z,16480.00
2023-02-15T10:48:23.523Z,16256.00
2023-02-15T10:49:23.489Z,16096.00
2023-02-15T10:50:23.506Z,16288.00
2023-02-15T10:51:23.471Z,16576.00
2023-02-15T10:52:24.413Z,16640.00
2023-02-15T10:53:23.452Z,17088.00
2023-02-15T10:54:23.438Z,17408.00
2023-02-15T10:55:23.425Z,17536.00
2023-02-15T10:56:23.437Z,17600.00
2023-02-15T10:57:23.403Z,17536.00
2023-02-15T10:58:23.385Z,17504.00
2023-02-15T10:59:23.375Z,17504.00
2023-02-15T11:00:23.378Z,17344.00
2023-02-15T11:01:23.425Z,17472.00
2023-02-15T11:02:23.349Z,17856.00
2023-02-15T11:03:23.424Z,18080.00
2023-02-15T11:04:23.322Z,18048.00
2023-02-15T11:05:23.341Z,18336.00
2023-02-15T11:06:23.325Z,18560.00
2023-02-15T11:07:23.295Z,18752.00
2023-02-15T11:08:23.303Z,17888.00
2023-02-15T11:09:23.279Z,18048.00
2023-02-15T11:10:23.266Z,17664.00
2023-02-15T11:11:23.253Z,17536.00
2023-02-15T11:12:23.236Z,17696.00
2023-02-15T11:13:23.395Z,17824.00
2023-02-15T11:14:23.238Z,18464.00
2023-02-15T11:15:23.197Z,18848.00
2023-02-15T11:16:23.199Z,18592.00
2023-02-15T11:17:23.180Z,18464.00
2023-02-15T11:18:23.256Z,18624.00
2023-02-15T11:19:23.162Z,18336.00
2023-02-15T11:20:23.146Z,18688.00
2023-02-15T11:21:23.153Z,18112.00
2023-02-15T11:22:23.122Z,18336.00
2023-02-15T11:23:23.136Z,18240.00
2023-02-15T11:24:23.100Z,18016.00
2023-02-15T11:25:23.091Z,16960.00
2023-02-15T11:26:23.079Z,16096.00
2023-02-15T11:27:23.135Z,15648.00
2023-02-15T11:28:23.052Z,14752.00
2023-02-15T11:29:23.070Z,14560.00
2023-02-15T11:30:23.150Z,15072.00
2023-02-15T11:31:23.120Z,14848.00
2023-02-15T11:32:23.024Z,15872.00
2023-02-15T11:33:23.066Z,17344.00
2023-02-15T11:34:22.992Z,18144.00
2023-02-15T11:35:22.999Z,18464.00
2023-02-15T11:36:22.992Z,19008.00
2023-02-15T11:37:22.955Z,18208.00
2023-02-15T11:38:22.945Z,17376.00
2023-02-15T11:39:22.939Z,17888.00
2023-02-15T11:40:22.924Z,17824.00
2023-02-15T11:41:22.903Z,18016.00
2023-02-15T11:42:22.927Z,18208.00
2023-02-15T11:43:22.910Z,17600.00
2023-02-15T11:44:22.878Z,17216.00
2023-02-15T11:45:22.862Z,16576.00
2023-02-15T11:46:22.921Z,15968.00
2023-02-15T11:47:22.839Z,14248.00
2023-02-15T11:48:22.863Z,15808.00
2023-02-15T11:49:22.815Z,16800.00
2023-02-15T11:50:22.811Z,17664.00
2023-02-15T11:51:24.046Z,16864.00
2023-02-15T11:52:22.786Z,16736.00
2023-02-15T11:53:22.796Z,17184.00
2023-02-15T11:54:22.763Z,18304.00
2023-02-15T11:55:22.752Z,17600.00
2023-02-15T11:56:22.747Z,19072.00
2023-02-15T11:57:23.232Z,18496.00
2023-02-15T11:58:22.722Z,18048.00
2023-02-15T11:59:22.710Z,17568.00
2023-02-15T12:00:22.705Z,18400.00
2023-02-15T12:01:22.686Z,19392.00
2023-02-15T12:02:22.712Z,19808.00
2023-02-15T12:03:23.601Z,20192.00
2023-02-15T12:04:22.770Z,19520.00
2023-02-15T12:05:22.638Z,18272.00
2023-02-15T12:06:22.624Z,17600.00
2023-02-15T12:07:22.638Z,16448.00
2023-02-15T12:08:22.615Z,17120.00
2023-02-15T12:09:23.656Z,18144.00
2023-02-15T12:10:22.613Z,18624.00
2023-02-15T12:11:22.568Z,18720.00
2023-02-15T12:12:22.587Z,18400.00
2023-02-15T12:13:22.568Z,18464.00
2023-02-15T12:14:22.541Z,19456.00
2023-02-15T12:15:22.530Z,19456.00
2023-02-15T12:16:22.548Z,19584.00
2023-02-15T12:17:22.501Z,19552.00
2023-02-15T12:18:22.519Z,19520.00
2023-02-15T12:19:22.486Z,18784.00
2023-02-15T12:20:22.480Z,19104.00
2023-02-15T12:21:22.463Z,18624.00
2023-02-15T12:22:22.451Z,18016.00
2023-02-15T12:23:22.443Z,18144.00
2023-02-15T12:24:22.452Z,18336.00
2023-02-15T12:25:22.418Z,18432.00
2023-02-15T12:26:22.412Z,18688.00
2023-02-15T12:27:22.393Z,17952.00
2023-02-15T12:28:22.393Z,16512.00
2023-02-15T12:29:22.404Z,16000.00
2023-02-15T12:30:22.432Z,15536.00
2023-02-15T12:31:22.445Z,15164.00
2023-02-15T12:32:22.465Z,14852.00
2023-02-15T12:33:22.344Z,14840.00
2023-02-15T12:34:22.323Z,14492.00
2023-02-15T12:35:22.326Z,14636.00
2023-02-15T12:36:22.299Z,14872.00
2023-02-15T12:37:22.287Z,15220.00
2023-02-15T12:38:22.275Z,15136.00